Latest Coastal Weather Observations for Truscott

IDW60701

Issued at 4:53 am WST Wednesday 26 July 2017 (issued every 10 minutes, with the page automatically refreshed every 10 minutes)

About coastal observations | Map of coastal stations | Coastal observations for WA | Marine services | Other Formats
Station Details ID: 001020 Name: TRUSCOTT Lat: -14.09 Lon: 126.39 Height: 51.0 m
Data from the previous 72 hours. | See also: Recent months at Truscott
Date/Time
WST
Temp
°C
Wind Pressure Rain since
9am
mm
Weather Cloud Vis
km
Sea
Height
m
Swell
Dir  Spd
kts
Gust
kts
hPa Trend Height
m
Period
s
Dir
26/04:30am 20.1 WSW 2 5 1012.6 - 0.0 - - 10 - - - -
26/04:00am 20.1 SW 1 3 1012.4 - 0.0 - - 10 - - - -
26/03:30am 21.0 WSW 3 4 1012.4 - 0.0 - - 10 - - - -
26/03:00am 20.6 SW 2 3 1012.2 - 0.0 - - 10 - - - -
26/02:30am 20.1 CALM 0 0 1012.1 - 0.0 - - 10 - - - -
26/02:00am 20.2 CALM 0 0 1012.3 - 0.0 - - 10 - - - -
26/01:30am 20.7 SW 3 4 1012.4 - 0.0 - - 10 - - - -
26/01:00am 21.0 SSW 3 4 1012.6 - 0.0 - - 10 - - - -
26/12:30am 21.2 S 4 4 1012.8 - 0.0 - - 10 - - - -
26/12:00am 21.7 SE 3 4 1013.0 - 0.0 - - 10 - - - -
 
Date/Time
WST
Temp
°C
Wind Pressure Rain since
9am
mm
Weather Cloud Vis
km
Sea
Height
m
Swell
Dir  Spd
kts
Gust
kts
hPa Trend Height
m
Period
s
Dir
25/11:30pm 22.3 ESE 3 4 1013.0 - 0.0 - - 10 - - - -
25/11:00pm 22.4 ESE 4 5 1013.1 - 0.0 - - 10 - - - -
25/10:30pm 22.1 E 4 5 1013.3 - 0.0 - - 10 - - - -
25/10:00pm 22.5 ESE 4 5 1013.5 - 0.0 - - 10 - - - -
25/09:30pm 23.3 ESE 4 5 1013.5 - 0.0 - - 10 - - - -
25/09:00pm 23.7 ESE 4 6 1013.7 - 0.0 - - 10 - - - -
25/08:30pm 24.2 E 4 6 1013.5 - 0.0 - - 10 - - - -
25/08:00pm 24.5 E 4 5 1013.3 - 0.0 - - 10 - - - -
25/07:30pm 24.2 ENE 4 5 1013.0 - 0.0 - - 10 - - - -
25/07:00pm 24.5 NE 3 4 1012.6 - 0.0 - - 10 - - - -
25/06:30pm 25.1 NNE 3 4 1012.3 - 0.0 - - 10 - - - -
25/06:00pm 25.7 N 2 4 1011.9 - 0.0 - - 10 - - - -
25/05:30pm 26.9 N 4 5 1011.7 - 0.0 - - 10 - - - -
25/05:00pm 28.6 N 5 7 1011.4 - 0.0 - - 10 - - - -
25/04:30pm 30.8 NE 6 9 1011.1 - 0.0 - - 10 - - - -
25/04:00pm 31.8 NE 7 10 1010.9 - 0.0 - - 10 - - - -
25/03:30pm 32.8 ENE 7 10 1010.7 - 0.0 - - 10 - - - -
25/03:00pm 33.3 ENE 6 8 1010.6 - 0.0 - - 10 - - - -
25/02:30pm 33.3 ENE 8 13 1010.8 - 0.0 - - 10 - - - -
25/02:00pm 32.8 E 7 12 1011.0 - 0.0 - - 10 - - - -
25/01:30pm 33.0 E 10 16 1011.3 - 0.0 - - 10 - - - -
25/01:00pm 32.6 E 10 14 1011.7 - 0.0 - - 10 - - - -
25/12:30pm 32.3 ENE 10 16 1012.2 - 0.0 - - 10 - - - -
25/12:00pm 31.8 E 10 19 1012.8 - 0.0 - - 10 - - - -
25/11:30am 31.7 E 10 15 1013.4 - 0.0 - - 10 - - - -
25/11:00am 31.1 E 11 17 1013.8 - 0.0 - - 10 - - - -
25/10:30am 31.1 ESE 10 16 1014.3 - 0.0 - - 10 - - - -
25/10:00am 30.5 ESE 10 19 1014.5 - 0.0 - - 10 - - - -
25/09:30am 29.2 E 10 16 1014.7 - 0.0 - - 10 - - - -
25/09:00am 28.2 ESE 11 18 1014.8 - 0.0 - - 10 - - - -
25/08:30am 27.6 ESE 9 15 1014.8 - 0.0 - - 10 - - - -
25/08:00am 26.7 ESE 9 15 1014.7 - 0.0 - - 10 - - - -
25/07:30am 25.9 ESE 8 13 1014.3 - 0.0 - - 10 - - - -
25/07:00am 24.6 ESE 5 8 1014.0 - 0.0 - - 10 - - - -
25/06:30am 23.2 ESE 4 5 1013.7 - 0.0 - - 10 - - - -
25/06:00am 22.5 SE 4 6 1013.3 - 0.0 - Partly cloudy 10 - - - -
25/05:30am 22.9 SSE 4 7 1013.2 - 0.0 - - 10 - - - -
25/05:00am 22.6 SSE 5 7 1013.1 - 0.0 - - 10 - - - -
25/04:30am 21.1 SE 4 5 1013.0 - 0.0 - - 10 - - - -
25/04:00am 20.8 ESE 3 4 1013.0 - 0.0 - - 10 - - - -
25/03:30am 23.3 SE 5 6 1012.8 - 0.0 - - 10 - - - -
25/03:00am 23.1 SSE 4 6 1012.6 - 0.0 - - 10 - - - -
25/02:30am 22.6 SSE 4 6 1012.8 - 0.0 - - 10 - - - -
25/02:00am 21.4 S 3 4 1013.1 - 0.0 - - 10 - - - -
25/01:30am 21.1 S 4 5 1013.3 - 0.0 - - 10 - - - -
25/01:00am 22.2 SW 4 5 1013.4 - 0.0 - - 10 - - - -
25/12:30am 22.8 SW 5 6 1013.5 - 0.0 - - 10 - - - -
25/12:00am 22.2 SSW 4 5 1013.7 - 0.0 - - 10 - - - -
 
Date/Time
WST
Temp
°C
Wind Pressure Rain since
9am
mm
Weather Cloud Vis
km
Sea
Height
m
Swell
Dir  Spd
kts
Gust
kts
hPa Trend Height
m
Period
s
Dir
24/11:30pm 22.5 SSW 4 5 1013.9 - 0.0 - - 10 - - - -
24/11:00pm 22.8 SSW 5 7 1013.7 - 0.0 - - 10 - - - -
24/10:30pm 21.9 S 5 6 1013.7 - 0.0 - - 10 - - - -
24/10:00pm 22.0 E 4 4 1013.6 - 0.0 - - 10 - - - -
24/09:30pm 23.0 E 4 6 1013.7 - 0.0 - - 10 - - - -
24/09:00pm 23.2 E 4 5 1013.8 - 0.0 - - 10 - - - -
24/08:30pm 23.3 E 4 5 1013.9 - 0.0 - - 10 - - - -
24/08:00pm 24.5 ENE 5 6 1014.0 - 0.0 - - 10 - - - -
24/07:30pm 24.7 E 5 6 1013.8 - 0.0 - - 10 - - - -
24/07:00pm 25.2 ENE 4 6 1013.5 - 0.0 - - 10 - - - -
24/06:30pm 26.1 NE 4 6 1013.0 - 0.0 - - 10 - - - -
24/06:00pm 26.7 NE 4 5 1012.5 - 0.0 - - 10 - - - -
24/05:30pm 27.7 NNE 5 7 1012.1 - 0.0 - - 10 - - - -
24/05:00pm 29.8 NE 7 10 1011.7 - 0.0 - - 10 - - - -
24/04:30pm 31.0 NE 7 11 1011.3 - 0.0 - - 10 - - - -
24/04:00pm 31.8 ENE 9 13 1011.1 - 0.0 - - 10 - - - -
24/03:30pm 32.2 NE 9 13 1011.1 - 0.0 - - 10 - - - -
24/03:00pm 32.5 ENE 9 13 1011.2 - 0.0 - - 10 - - - -
24/02:30pm 32.3 E 9 12 1011.1 - 0.0 - - 10 - - - -
24/02:00pm 32.3 E 9 16 1011.3 - 0.0 - - 10 - - - -
24/01:30pm 32.2 ESE 9 14 1011.6 - 0.0 - - 10 - - - -
24/01:00pm 32.1 E 11 18 1012.0 - 0.0 - - 10 - - - -
24/12:30pm 32.1 E 12 19 1012.5 - 0.0 - - 10 - - - -
24/12:00pm 31.6 E 11 19 1013.1 - 0.0 - - 10 - - - -
24/11:30am 30.8 E 11 18 1013.6 - 0.0 - - 10 - - - -
24/11:00am 30.8 E 12 19 1014.0 - 0.0 - - 10 - - - -
24/10:30am 30.2 E 12 19 1014.6 - 0.0 - - 10 - - - -
24/10:00am 29.7 E 12 19 1015.1 - 0.0 - - 10 - - - -
24/09:30am 29.7 ESE 9 15 1015.3 - 0.0 - - 10 - - - -
24/09:00am 28.4 ESE 10 15 1015.3 - 0.0 - - 10 - - - -
24/08:30am 27.4 ESE 9 14 1015.4 - 0.0 - - 10 - - - -
24/08:00am 26.7 ESE 7 10 1015.4 - 0.0 - - 10 - - - -
24/07:30am 25.0 SE 5 7 1015.1 - 0.0 - - 10 - - - -
24/07:00am 23.6 SE 4 6 1014.8 - 0.0 - - 10 - - - -
24/06:30am 22.2 SE 5 6 1014.5 - 0.0 - - 10 - - - -
24/06:00am 20.2 S 3 4 1014.1 - 0.0 - - 10 - - - -
24/05:30am 20.6 SSE 4 5 1013.7 - 0.0 - - 10 - - - -
24/05:00am 20.6 SSE 3 5 1013.3 - 0.0 - - 10 - - - -
24/04:30am 20.3 S 3 4 1013.1 - 0.0 - - 10 - - - -
24/04:00am 19.7 SSE 4 4 1013.0 - 0.0 - - 10 - - - -
24/03:30am 19.5 SSW 2 3 1012.8 - 0.0 - - 10 - - - -
24/03:00am 20.0 S 3 4 1012.8 - 0.0 - - 10 - - - -
24/02:30am 19.9 SSW 3 4 1012.8 - 0.0 - - 10 - - - -
24/02:00am 20.5 SSW 4 5 1013.1 - 0.0 - - 10 - - - -
24/01:30am 20.7 SSW 4 5 1013.3 - 0.0 - - 10 - - - -
24/01:00am 21.0 SW 5 6 1013.5 - 0.0 - - 10 - - - -
24/12:30am 21.3 SW 6 7 1013.6 - 0.0 - - 10 - - - -
24/12:00am 21.0 SW 4 6 1013.7 - 0.0 - - 10 - - - -
 
Date/Time
WST
Temp
°C
Wind Pressure Rain since
9am
mm
Weather Cloud Vis
km
Sea
Height
m
Swell
Dir  Spd
kts
Gust
kts
hPa Trend Height
m
Period
s
Dir
23/11:30pm 21.1 SW 4 5 1013.8 - 0.0 - - 10 - - - -
23/11:00pm 20.6 S 4 5 1013.9 - 0.0 - - 10 - - - -
23/10:30pm 20.9 SSE 4 5 1013.9 - 0.0 - - 10 - - - -
23/10:00pm 21.0 SE 3 5 1014.0 - 0.0 - - 10 - - - -
23/09:30pm 21.6 SE 4 5 1014.1 - 0.0 - - 10 - - - -
23/09:00pm 22.0 SE 4 5 1014.1 - 0.0 - - 10 - - - -
23/08:30pm 21.6 SE 4 5 1013.9 - 0.0 - - 10 - - - -
23/08:00pm 22.5 ESE 4 5 1013.8 - 0.0 - - 10 - - - -
23/07:30pm 22.6 ESE 3 4 1013.7 - 0.0 - - 10 - - - -
23/07:00pm 23.5 ENE 3 5 1013.3 - 0.0 - - 10 - - - -
23/06:30pm 23.5 NE 3 4 1012.6 - 0.0 - - 10 - - - -
23/06:00pm 24.6 NE 3 4 1012.2 - 0.0 - - 10 - - - -
23/05:30pm 26.1 NNE 4 5 1011.8 - 0.0 - - 10 - - - -
23/05:00pm 27.8 NNE 6 8 1011.5 - 0.0 - - 10 - - - -
23/04:30pm 28.9 NNE 7 11 1011.3 - 0.0 - - 10 - - - -
23/04:00pm 29.7 NNE 7 11 1011.2 - 0.0 - - 10 - - - -
23/03:30pm 30.1 N 6 10 1011.0 - 0.0 - - 10 - - - -
23/03:00pm 32.2 NE 6 8 1011.1 - 0.0 - - 10 - - - -
23/02:30pm 31.9 E 7 11 1011.2 - 0.0 - - 10 - - - -
23/02:00pm 31.9 E 8 13 1011.4 - 0.0 - - 10 - - - -
23/01:30pm 31.9 ENE 8 13 1011.9 - 0.0 - - 10 - - - -
23/01:00pm 31.3 ESE 9 16 1012.3 - 0.0 - - 10 - - - -
23/12:30pm 31.2 E 9 13 1012.8 - 0.0 - - 10 - - - -
23/12:00pm 31.0 E 9 16 1013.4 - 0.0 - - 10 - - - -
23/11:30am 30.8 E 9 17 1014.0 - 0.0 - - 10 - - - -
23/11:00am 30.6 E 9 15 1014.4 - 0.0 - - 10 - - - -
23/10:30am 30.1 E 9 13 1014.9 - 0.0 - - 10 - - - -
23/10:00am 29.1 ESE 11 17 1015.2 - 0.0 - - 10 - - - -
23/09:30am 28.3 ESE 10 15 1015.4 - 0.0 - - 10 - - - -
23/09:00am 27.5 ESE 9 14 1015.6 - 0.0 - - 10 - - - -
23/08:30am 26.3 ESE 8 12 1015.6 - 0.0 - - 10 - - - -
23/08:00am 24.8 ESE 6 10 1015.5 - 0.0 - - 10 - - - -
23/07:30am 23.6 ESE 5 7 1015.3 - 0.0 - - 10 - - - -
23/07:00am 22.1 SSE 4 5 1015.0 - 0.0 - - 10 - - - -
23/06:30am 19.7 S 4 5 1014.9 - 0.0 - - 10 - - - -
23/06:00am 19.7 S 5 6 1014.6 - 0.0 - - 10 - - - -
23/05:30am 21.4 SSW 7 8 1014.5 - 0.0 - - 10 - - - -
23/05:00am 21.2 S 7 9 1014.4 - 0.0 - - 10 - - - -

Other Formats:

Comma delimited format used in spreadsheet applications
http://www.bom.gov.au/fwo/IDW60701/IDW60701.95101.axf

JavaScript Object Notation format (JSON) in row-major order
http://www.bom.gov.au/fwo/IDW60701/IDW60701.95101.json